Terminal Aerodrome Forecast
Issued by NWS Brownsville, TX

Home | Current Version | Previous Version | Text Only | Print | Product List | Glossary On
Versions: 1 2 3 4 5 6 7 8 9 10 11 12 13 14 15 16 17 18 19
000
FTUS44 KBRO 280528
TAFMFE
TAF
KMFE 280528Z 2806/2906 32003KT P6SM FEW250
     FM281000 30004KT 6SM BR FEW005 BKN250
      TEMPO 2810/2812 4SM BR BKN005
     FM281400 33012G20KT P6SM SCT250
     FM281700 34020G28KT P6SM SKC
     FM290100 36012G17KT P6SM SKC=

USA.gov is the U.S. government's official web portal to all federal, state and local government web resources and services.